Nearby METAR Reports

 

EGUW - Wattisham Raf, United Kingdom
Distance from station: SW 12mi, 19km
Updated: 25/01/2021 10:50
Clear
Clear
 Wind from WNW
Wind: WNW 10 mph , 17 km/h
Temperature: 0°C
Wind Chill: -4°C
Dew Point: -1°C
Humidity: 93%
Barometer: 1007 hPa
Summary: Clear
Visibility: greater than 7 miles , 10 km
2021/01/25 10:50 EGUW 251050Z 29009KT CAVOK 00/M01 Q1007 NOSIG RMK BLACKBLU BLU
EGUL - Lakenheath Raf, United Kingdom
Distance from station: WNW 29mi, 47km
Updated: 25/01/2021 10:56
Clear
Clear
 Wind from W
Wind: W 9 mph , 15 km/h
Temperature: 1°C
Wind Chill: -3°C
Dew Point: 1°C
Humidity: 100%
Barometer: 1007.1 hPa
Clouds: Clear
Visibility: 6 miles , 10 km
2021/01/25 10:56 EGUL 251056Z AUTO 26008KT 9999 CLR 01/01 A2974 RMK AO2 SLP075 T00050005 $
 
EGUN - Mildenhall Raf, United Kingdom
Distance from station: WNW 32mi, 51km
Updated: 25/01/2021 10:56
Clear
Clear
 Wind from W
Wind: W 10 mph , 17 km/h
Temperature: 1°C
Wind Chill: -3°C
Dew Point: 1°C
Humidity: 100%
Barometer: 1007.5 hPa
Clouds: Clear
Visibility: 6 miles , 10 km
2021/01/25 10:56 EGUN 251056Z AUTO 26009KT 9999 CLR 01/01 A2975 RMK AO2 SLP078 T00100010 FZRANO $
EGSH - Norwich Wea Cntr, United Kingdom
Distance from station: N 32mi, 52km
Updated: 25/01/2021 10:50
Clear
Clear
 Wind from WSW
Wind: WSW 13 mph , 20 km/h
Temperature: 2°C
Wind Chill: -3°C
Dew Point: -1°C
Humidity: 81%
Barometer: 1007 hPa
Summary: Clear
Visibility: greater than 7 miles , 10 km
2021/01/25 10:50 EGSH 251050Z 25011KT CAVOK 02/M01 Q1007
 
EGYM - Marham Raf, United Kingdom
Distance from station: NW 39mi, 62km
Updated: 25/01/2021 10:50
Clear
Clear
 Wind from WSW
Wind: WSW 9 mph , 15 km/h
Temperature: 1°C
Wind Chill: -3°C
Dew Point: -1°C
Humidity: 87%
Barometer: 1007 hPa
Summary: Clear
Visibility: greater than 7 miles , 10 km
2021/01/25 10:50 EGYM 251050Z 25008KT CAVOK 01/M01 Q1007 NOSIG RMK BLU BLU
EGSC - Cambridge, United Kingdom
Distance from station: W 43mi, 69km
Updated: 25/01/2021 10:50
Clear
Clear
 Wind from W
Wind: W 13 mph , 20 km/h
Temperature: 0°C
Wind Chill: -6°C
Dew Point: -2°C
Humidity: 87%
Barometer: 1008 hPa
Summary: Clear
Visibility: greater than 7 miles , 10 km
2021/01/25 10:50 EGSC 251050Z 27011KT CAVOK 00/M02 Q1008
 
EGSS - Stansted Airport, United Kingdom
Distance from station: WSW 47mi, 76km
Updated: 25/01/2021 10:50
Clear
Clear
 Wind from W
Wind: W 9 mph , 15 km/h
Temperature: 1°C
Wind Chill: -3°C
Dew Point: -2°C
Humidity: 81%
Barometer: 1008 hPa
Clouds: Clear
Visibility: 6 miles , 10 km
2021/01/25 10:50 EGSS 251050Z AUTO 28008KT 250V310 9999 NCD 01/M02 Q1008
EGMC - Southend-On-Sea, United Kingdom
Distance from station: SSW 50mi, 80km
Updated: 25/01/2021 10:50
Few Clouds
Few Clouds
 Wind from W
Wind: W 9 mph , 15 km/h
Temperature: 3°C
Wind Chill: -1°C
Dew Point: -1°C
Humidity: 75%
Barometer: 1008 hPa
Clouds: Few Clouds
Visibility: 6 miles , 10 km
Cloud details: Few Clouds 396 m
2021/01/25 10:50 EGMC 251050Z 28008KT 9999 FEW013 03/M01 Q1008